UAE32E OMDB-KBOS
Flight info
| Callsign | UAE32E |
|---|---|
| Flight time | N/A |
| Altitude | 34000 |
| Route | ANVIX DCT KIPOK Q308 ASPED G783 UKRAG DCT MUXIT DCT RAPMA Y214 NAGUB DCT LOPEP DCT MOBAG DCT LADRO DCT PS6 DCT SOKOP DCT MOBAD DCT PASIT T503 TOTAD DCT ORSAL T503 GADLI P559 RASLI DCT ZELAF DCT KTN R785 BRAVO DCT 344409N0354522E 345004N0351456E DCT KRASI DCT VESAR DCT MUT DCT HISAR DCT KFK DCT EDASA/N0485F360 DCT YEN DCT BA091 DCT REDGI DCT RILEX DCT 422428N0251517E DCT GODEK DCT NEPOS DCT IA DCT BABIT DCT SASAL DCT RENKA DCT MAMOR DCT PETIX DCT TUSUK DCT ADKUV DCT BUB L608 DENUT L610 RAPIX/N0480F380 L610 KOPUL Q60 OKSAW DCT FELCA DCT OFSOX L9 SLANY DCT MALOT/M085F380 DCT 53N020W 53N030W 53N040W 51N050W DCT ALLRY/N0495F380 N468A TUSKY DCT EURRO OOSHN5 |
| Aircraft | A359/H-SDE2E3GHIJ3J4J5LM1ORWXY/LB1D1 |
Departure
| Time | 2026-04-25 02:13 |
|---|---|
| Airport | Dubai International Airport (OMDB) |
Arrival
| Time | N/A |
|---|---|
| Airport | Boston Logan International Airport (KBOS) |
| Time | Latitude | Longitude | Altitude | Speed | Heading |
|---|---|---|---|---|---|
| 2026-04-25 01:40 | 25.25058 | 55.35982 | 28 ft | 0 kts | 211° |
| 2026-04-25 01:55 | 25.25061 | 55.35984 | 27 ft | 2 kts | 211° |
| 2026-04-25 01:56 | 25.25077 | 55.35995 | 26 ft | 3 kts | 211° |
| 2026-04-25 01:56 | 25.25095 | 55.36006 | 25 ft | 3 kts | 210° |
| 2026-04-25 01:56 | 25.25112 | 55.36017 | 26 ft | 3 kts | 210° |
| 2026-04-25 01:56 | 25.25129 | 55.36029 | 26 ft | 3 kts | 226° |
| 2026-04-25 01:57 | 25.25134 | 55.36051 | 24 ft | 2 kts | 302° |
| 2026-04-25 01:57 | 25.25124 | 55.36069 | 24 ft | 3 kts | 302° |
| 2026-04-25 01:57 | 25.25118 | 55.36080 | 27 ft | 0 kts | 302° |
| 2026-04-25 01:58 | 25.25117 | 55.36080 | 27 ft | 0 kts | 302° |
| 2026-04-25 01:58 | 25.25117 | 55.36079 | 27 ft | 0 kts | 302° |
| 2026-04-25 02:01 | 25.25120 | 55.36075 | 28 ft | 2 kts | 302° |
| 2026-04-25 02:01 | 25.25146 | 55.36031 | 27 ft | 11 kts | 302° |
| 2026-04-25 02:02 | 25.25197 | 55.35941 | 27 ft | 14 kts | 302° |
| 2026-04-25 02:02 | 25.25256 | 55.35836 | 27 ft | 18 kts | 301° |
| 2026-04-25 02:02 | 25.25327 | 55.35709 | 27 ft | 21 kts | 302° |
| 2026-04-25 02:02 | 25.25404 | 55.35570 | 27 ft | 20 kts | 302° |
| 2026-04-25 02:03 | 25.25484 | 55.35428 | 27 ft | 23 kts | 301° |
| 2026-04-25 02:03 | 25.25561 | 55.35291 | 27 ft | 21 kts | 302° |
| 2026-04-25 02:03 | 25.25649 | 55.35160 | 27 ft | 16 kts | 334° |
| 2026-04-25 02:03 | 25.25731 | 55.35182 | 27 ft | 13 kts | 28° |
| 2026-04-25 02:04 | 25.25818 | 55.35241 | 27 ft | 16 kts | 31° |
| 2026-04-25 02:04 | 25.25926 | 55.35313 | 28 ft | 20 kts | 31° |
| 2026-04-25 02:04 | 25.26005 | 55.35428 | 28 ft | 19 kts | 76° |
| 2026-04-25 02:04 | 25.25982 | 55.35569 | 29 ft | 19 kts | 124° |
| 2026-04-25 02:05 | 25.25908 | 55.35700 | 29 ft | 22 kts | 122° |
| 2026-04-25 02:05 | 25.25823 | 55.35851 | 29 ft | 25 kts | 122° |
| 2026-04-25 02:05 | 25.25728 | 55.36020 | 29 ft | 27 kts | 122° |
| 2026-04-25 02:05 | 25.25624 | 55.36205 | 30 ft | 29 kts | 122° |
| 2026-04-25 02:06 | 25.25513 | 55.36403 | 30 ft | 31 kts | 122° |
| 2026-04-25 02:06 | 25.25396 | 55.36612 | 30 ft | 33 kts | 122° |
| 2026-04-25 02:06 | 25.25272 | 55.36832 | 30 ft | 34 kts | 122° |
| 2026-04-25 02:06 | 25.25143 | 55.37060 | 31 ft | 35 kts | 122° |
| 2026-04-25 02:07 | 25.25013 | 55.37293 | 31 ft | 33 kts | 121° |
| 2026-04-25 02:07 | 25.24891 | 55.37509 | 31 ft | 31 kts | 122° |
| 2026-04-25 02:07 | 25.24789 | 55.37692 | 31 ft | 22 kts | 122° |
| 2026-04-25 02:07 | 25.24766 | 55.37733 | 31 ft | 0 kts | 122° |
| 2026-04-25 02:08 | 25.24765 | 55.37734 | 31 ft | 0 kts | 122° |
| 2026-04-25 02:08 | 25.24759 | 55.37744 | 31 ft | 4 kts | 122° |
| 2026-04-25 02:09 | 25.24736 | 55.37786 | 31 ft | 9 kts | 122° |
| 2026-04-25 02:09 | 25.24694 | 55.37860 | 30 ft | 13 kts | 122° |
| 2026-04-25 02:09 | 25.24665 | 55.37942 | 31 ft | 8 kts | 72° |
| 2026-04-25 02:09 | 25.24689 | 55.37966 | 31 ft | 0 kts | 32° |
| 2026-04-25 02:10 | 25.24693 | 55.37968 | 31 ft | 3 kts | 32° |
| 2026-04-25 02:11 | 25.24728 | 55.37993 | 33 ft | 9 kts | 32° |
| 2026-04-25 02:11 | 25.24795 | 55.38024 | 36 ft | 9 kts | 353° |
| 2026-04-25 02:11 | 25.24832 | 55.37982 | 36 ft | 0 kts | 301° |
| 2026-04-25 02:12 | 25.24889 | 55.37878 | 36 ft | 46 kts | 301° |
| 2026-04-25 02:13 | 25.25176 | 55.37360 | 38 ft | 111 kts | 301° |
| 2026-04-25 02:13 | 25.25683 | 55.36448 | 36 ft | 167 kts | 301° |
| 2026-04-25 02:13 | 25.26331 | 55.35273 | 520 ft | 176 kts | 300° |
| 2026-04-25 02:13 | 25.26950 | 55.34127 | 1239 ft | 175 kts | 301° |
| 2026-04-25 02:14 | 25.27602 | 55.32957 | 1779 ft | 187 kts | 302° |
| 2026-04-25 02:14 | 25.28321 | 55.31678 | 1996 ft | 202 kts | 302° |
| 2026-04-25 02:14 | 25.29020 | 55.30271 | 2067 ft | 218 kts | 291° |
| 2026-04-25 02:14 | 25.29142 | 55.28569 | 2143 ft | 233 kts | 256° |
| 2026-04-25 02:15 | 25.28532 | 55.26865 | 2385 ft | 242 kts | 245° |
| 2026-04-25 02:15 | 25.27788 | 55.25180 | 2734 ft | 246 kts | 245° |
| 2026-04-25 02:15 | 25.27035 | 55.23464 | 3101 ft | 250 kts | 245° |
| 2026-04-25 02:15 | 25.26282 | 55.21726 | 3483 ft | 251 kts | 246° |
| 2026-04-25 02:16 | 25.25539 | 55.19989 | 3931 ft | 250 kts | 246° |
| 2026-04-25 02:16 | 25.24725 | 55.18290 | 4341 ft | 252 kts | 236° |
| 2026-04-25 02:16 | 25.23402 | 55.17033 | 4706 ft | 256 kts | 205° |
| 2026-04-25 02:16 | 25.21649 | 55.16700 | 5082 ft | 259 kts | 180° |
| 2026-04-25 02:17 | 25.19848 | 55.16930 | 5439 ft | 263 kts | 165° |
| 2026-04-25 02:17 | 25.18264 | 55.17907 | 5771 ft | 269 kts | 136° |
| 2026-04-25 02:17 | 25.17161 | 55.19637 | 5951 ft | 281 kts | 118° |
| 2026-04-25 02:17 | 25.16254 | 55.21584 | 6209 ft | 288 kts | 117° |
| 2026-04-25 02:18 | 25.15342 | 55.23565 | 6569 ft | 291 kts | 118° |
| 2026-04-25 02:18 | 25.14414 | 55.25548 | 6960 ft | 292 kts | 118° |
| 2026-04-25 02:18 | 25.13468 | 55.27546 | 7358 ft | 294 kts | 118° |
| 2026-04-25 02:18 | 25.12516 | 55.29553 | 7761 ft | 296 kts | 119° |
| 2026-04-25 02:19 | 25.11553 | 55.31558 | 8146 ft | 297 kts | 119° |
| 2026-04-25 02:19 | 25.10581 | 55.33577 | 8581 ft | 298 kts | 119° |
| 2026-04-25 02:19 | 25.09680 | 55.35649 | 8985 ft | 300 kts | 115° |
| 2026-04-25 02:19 | 25.08836 | 55.37755 | 9403 ft | 302 kts | 115° |
| 2026-04-25 02:20 | 25.07978 | 55.39887 | 9822 ft | 303 kts | 115° |
| 2026-04-25 02:20 | 25.07114 | 55.42016 | 10217 ft | 305 kts | 115° |
| 2026-04-25 02:20 | 25.06265 | 55.44193 | 10448 ft | 314 kts | 114° |
| 2026-04-25 02:20 | 25.05410 | 55.46447 | 10617 ft | 324 kts | 114° |
| 2026-04-25 02:21 | 25.04521 | 55.48782 | 10770 ft | 335 kts | 114° |
| 2026-04-25 02:21 | 25.03601 | 55.51182 | 10925 ft | 345 kts | 114° |
| 2026-04-25 02:21 | 25.02649 | 55.53658 | 11099 ft | 355 kts | 114° |
| 2026-04-25 02:21 | 25.01568 | 55.56136 | 11254 ft | 364 kts | 120° |
| 2026-04-25 02:22 | 25.00281 | 55.58575 | 11411 ft | 372 kts | 122° |
| 2026-04-25 02:22 | 24.98936 | 55.61057 | 11581 ft | 381 kts | 122° |
| 2026-04-25 02:22 | 24.97560 | 55.63595 | 11726 ft | 390 kts | 122° |
| 2026-04-25 02:22 | 24.96158 | 55.66182 | 11902 ft | 397 kts | 121° |
| 2026-04-25 02:23 | 24.94736 | 55.68803 | 12161 ft | 400 kts | 122° |
| 2026-04-25 02:23 | 24.93184 | 55.71355 | 12501 ft | 402 kts | 126° |
| 2026-04-25 02:23 | 24.91537 | 55.73856 | 12829 ft | 404 kts | 127° |
| 2026-04-25 02:23 | 24.89874 | 55.76358 | 13167 ft | 406 kts | 127° |
| 2026-04-25 02:24 | 24.88205 | 55.78870 | 13476 ft | 408 kts | 127° |
| 2026-04-25 02:24 | 24.86528 | 55.81395 | 13794 ft | 410 kts | 127° |
| 2026-04-25 02:24 | 24.84837 | 55.83941 | 14079 ft | 412 kts | 126° |
| 2026-04-25 02:24 | 24.83167 | 55.86453 | 14357 ft | 414 kts | 126° |
| 2026-04-25 02:25 | 24.81445 | 55.89001 | 14632 ft | 416 kts | 127° |
| 2026-04-25 02:25 | 24.79708 | 55.91555 | 14917 ft | 417 kts | 127° |
| 2026-04-25 02:25 | 24.77886 | 55.94055 | 15184 ft | 419 kts | 132° |
| 2026-04-25 02:25 | 24.75869 | 55.96383 | 15478 ft | 421 kts | 136° |
| 2026-04-25 02:26 | 24.73748 | 55.98608 | 15758 ft | 423 kts | 137° |
| 2026-04-25 02:26 | 24.71572 | 56.00796 | 16040 ft | 425 kts | 138° |
| 2026-04-25 02:26 | 24.69378 | 56.02980 | 16327 ft | 427 kts | 138° |
| 2026-04-25 02:26 | 24.67179 | 56.05180 | 16598 ft | 428 kts | 138° |
| 2026-04-25 02:27 | 24.64888 | 56.07289 | 16870 ft | 430 kts | 147° |
| 2026-04-25 02:27 | 24.62211 | 56.08715 | 17196 ft | 429 kts | 164° |
| 2026-04-25 02:27 | 24.59270 | 56.09173 | 17465 ft | 429 kts | 182° |
| 2026-04-25 02:27 | 24.56349 | 56.08607 | 17696 ft | 429 kts | 200° |
| 2026-04-25 02:28 | 24.53737 | 56.07080 | 17938 ft | 428 kts | 218° |
| 2026-04-25 02:28 | 24.51522 | 56.04881 | 18228 ft | 428 kts | 227° |
| 2026-04-25 02:28 | 24.49509 | 56.02464 | 18469 ft | 429 kts | 229° |
| 2026-04-25 02:28 | 24.47516 | 56.00019 | 18753 ft | 430 kts | 228° |
| 2026-04-25 02:29 | 24.45467 | 55.97625 | 19004 ft | 431 kts | 226° |
| 2026-04-25 02:29 | 24.43343 | 55.95294 | 19254 ft | 432 kts | 225° |
| 2026-04-25 02:29 | 24.41165 | 55.93022 | 19505 ft | 433 kts | 224° |
| 2026-04-25 02:29 | 24.38949 | 55.90783 | 19755 ft | 434 kts | 223° |
| 2026-04-25 02:30 | 24.36709 | 55.88558 | 19991 ft | 434 kts | 223° |
| 2026-04-25 02:30 | 24.34458 | 55.86340 | 20224 ft | 435 kts | 223° |
| 2026-04-25 02:30 | 24.32202 | 55.84110 | 20423 ft | 438 kts | 223° |
| 2026-04-25 02:30 | 24.29941 | 55.81871 | 20635 ft | 439 kts | 223° |
| 2026-04-25 02:31 | 24.27676 | 55.79623 | 20880 ft | 439 kts | 223° |
| 2026-04-25 02:31 | 24.25410 | 55.77371 | 21135 ft | 440 kts | 223° |
| 2026-04-25 02:31 | 24.23141 | 55.75116 | 21403 ft | 440 kts | 223° |
| 2026-04-25 02:31 | 24.20871 | 55.72861 | 21629 ft | 441 kts | 224° |
| 2026-04-25 02:32 | 24.18597 | 55.70603 | 21867 ft | 442 kts | 224° |
| 2026-04-25 02:32 | 24.16313 | 55.68337 | 22103 ft | 443 kts | 224° |
| 2026-04-25 02:32 | 24.14024 | 55.66067 | 22339 ft | 444 kts | 224° |
| 2026-04-25 02:32 | 24.12506 | 55.64561 | 22506 ft | 445 kts | 224° |
| 2026-04-25 02:33 | 24.10211 | 55.62287 | 22738 ft | 446 kts | 224° |
| 2026-04-25 02:33 | 24.07907 | 55.60006 | 22970 ft | 447 kts | 224° |
| 2026-04-25 02:33 | 24.05600 | 55.57721 | 23201 ft | 448 kts | 224° |
| 2026-04-25 02:33 | 24.03236 | 55.55506 | 23418 ft | 450 kts | 219° |
| 2026-04-25 02:34 | 24.00598 | 55.53634 | 23613 ft | 454 kts | 210° |
| 2026-04-25 02:34 | 23.97686 | 55.52258 | 23802 ft | 458 kts | 202° |
| 2026-04-25 02:34 | 23.94649 | 55.51180 | 23990 ft | 459 kts | 199° |
| 2026-04-25 02:34 | 23.91572 | 55.50225 | 24170 ft | 461 kts | 198° |
| 2026-04-25 02:35 | 23.88461 | 55.49324 | 24347 ft | 462 kts | 197° |
| 2026-04-25 02:35 | 23.85347 | 55.48441 | 24521 ft | 464 kts | 197° |
| 2026-04-25 02:35 | 23.82220 | 55.47556 | 24722 ft | 464 kts | 197° |
| 2026-04-25 02:35 | 23.79094 | 55.46655 | 24888 ft | 465 kts | 198° |
| 2026-04-25 02:36 | 23.75960 | 55.45737 | 25070 ft | 466 kts | 198° |
| 2026-04-25 02:36 | 23.72830 | 55.44812 | 25245 ft | 467 kts | 198° |
| 2026-04-25 02:36 | 23.69685 | 55.43878 | 25401 ft | 469 kts | 198° |
| 2026-04-25 02:36 | 23.66535 | 55.42941 | 25572 ft | 470 kts | 198° |
| 2026-04-25 02:37 | 23.63382 | 55.41983 | 25753 ft | 470 kts | 200° |
| 2026-04-25 02:37 | 23.60329 | 55.40731 | 25941 ft | 468 kts | 207° |
| 2026-04-25 02:37 | 23.57505 | 55.39070 | 26109 ft | 467 kts | 215° |
| 2026-04-25 02:37 | 23.54921 | 55.36943 | 26284 ft | 465 kts | 224° |
| 2026-04-25 02:38 | 23.52689 | 55.34407 | 26458 ft | 464 kts | 232° |
| 2026-04-25 02:38 | 23.50843 | 55.31475 | 26634 ft | 464 kts | 242° |
| 2026-04-25 02:38 | 23.49491 | 55.28341 | 26807 ft | 464 kts | 250° |
| 2026-04-25 02:38 | 23.48602 | 55.24972 | 26980 ft | 464 kts | 259° |
| 2026-04-25 02:39 | 23.48214 | 55.21479 | 27183 ft | 465 kts | 268° |
| 2026-04-25 02:39 | 23.48045 | 55.17965 | 27340 ft | 466 kts | 264° |
| 2026-04-25 02:39 | 23.47649 | 55.14455 | 27508 ft | 467 kts | 262° |
| 2026-04-25 02:39 | 23.47192 | 55.10948 | 27684 ft | 468 kts | 261° |
| 2026-04-25 02:40 | 23.46694 | 55.07432 | 27861 ft | 470 kts | 261° |
| 2026-04-25 02:40 | 23.46167 | 55.03921 | 28033 ft | 471 kts | 260° |
| 2026-04-25 02:40 | 23.45619 | 55.00406 | 28193 ft | 472 kts | 260° |
| 2026-04-25 02:40 | 23.45061 | 54.96882 | 28381 ft | 472 kts | 260° |
| 2026-04-25 02:41 | 23.44497 | 54.93348 | 28540 ft | 473 kts | 260° |
| 2026-04-25 02:41 | 23.43934 | 54.89814 | 28696 ft | 475 kts | 260° |
| 2026-04-25 02:41 | 23.43369 | 54.86271 | 28840 ft | 476 kts | 260° |
| 2026-04-25 02:41 | 23.42805 | 54.82724 | 28983 ft | 477 kts | 260° |
| 2026-04-25 02:42 | 23.42237 | 54.79159 | 29114 ft | 478 kts | 260° |
| 2026-04-25 02:42 | 23.41670 | 54.75595 | 29246 ft | 479 kts | 260° |
| 2026-04-25 02:42 | 23.41099 | 54.72017 | 29389 ft | 479 kts | 260° |
| 2026-04-25 02:42 | 23.40529 | 54.68441 | 29566 ft | 479 kts | 260° |
| 2026-04-25 02:43 | 23.39959 | 54.64876 | 29781 ft | 479 kts | 260° |
| 2026-04-25 02:43 | 23.39387 | 54.61305 | 29974 ft | 478 kts | 260° |
| 2026-04-25 02:43 | 23.38816 | 54.57743 | 30150 ft | 478 kts | 260° |
| 2026-04-25 02:43 | 23.38246 | 54.54189 | 30328 ft | 477 kts | 260° |
| 2026-04-25 02:44 | 23.37673 | 54.50629 | 30514 ft | 476 kts | 260° |
| 2026-04-25 02:44 | 23.37103 | 54.47086 | 30671 ft | 476 kts | 260° |
| 2026-04-25 02:44 | 23.36531 | 54.43539 | 30820 ft | 476 kts | 260° |
| 2026-04-25 02:44 | 23.35958 | 54.39993 | 31010 ft | 475 kts | 260° |